sensor_id;sensor_type;location;lat;lon;timestamp;pressure;altitude;pressure_sealevel;temperature;humidity
74542;BME280;63015;45.378;20.360;2023-02-24T00:00:11;100676.91;;;8.08;63.92
74542;BME280;63015;45.378;20.360;2023-02-24T00:02:30;100686.38;;;8.06;63.79
74542;BME280;63015;45.378;20.360;2023-02-24T00:04:36;100678.66;;;8.11;63.70
74542;BME280;63015;45.378;20.360;2023-02-24T00:06:41;100684.66;;;8.06;63.92
74542;BME280;63015;45.378;20.360;2023-02-24T00:08:44;100675.22;;;8.12;63.87
74542;BME280;63015;45.378;20.360;2023-02-24T00:10:44;100686.38;;;8.06;64.04
74542;BME280;63015;45.378;20.360;2023-02-24T00:12:47;100675.22;;;8.10;63.89
74542;BME280;63015;45.378;20.360;2023-02-24T00:14:48;100684.75;;;8.13;63.81
74542;BME280;63015;45.378;20.360;2023-02-24T00:16:49;100682.06;;;8.05;64.05
74542;BME280;63015;45.378;20.360;2023-02-24T00:18:50;100681.25;;;8.11;64.06
74542;BME280;63015;45.378;20.360;2023-02-24T00:20:51;100679.50;;;8.08;64.47
74542;BME280;63015;45.378;20.360;2023-02-24T00:22:55;100677.72;;;8.05;64.52
74542;BME280;63015;45.378;20.360;2023-02-24T00:24:56;100681.25;;;8.11;64.35
74542;BME280;63015;45.378;20.360;2023-02-24T00:27:04;100682.16;;;8.13;64.79
74542;BME280;63015;45.378;20.360;2023-02-24T00:29:11;100682.00;;;8.02;65.63
74542;BME280;63015;45.378;20.360;2023-02-24T00:31:15;100669.84;;;7.98;66.23
74542;BME280;63015;45.378;20.360;2023-02-24T00:33:16;100668.91;;;7.94;66.52
74542;BME280;63015;45.378;20.360;2023-02-24T00:35:23;100668.78;;;7.85;67.46
74542;BME280;63015;45.378;20.360;2023-02-24T00:37:24;100667.03;;;7.82;67.16
74542;BME280;63015;45.378;20.360;2023-02-24T00:39:25;100659.13;;;7.74;67.69
74542;BME280;63015;45.378;20.360;2023-02-24T00:41:38;100672.91;;;7.70;67.95
74542;BME280;63015;45.378;20.360;2023-02-24T00:43:43;100665.09;;;7.69;67.74
74542;BME280;63015;45.378;20.360;2023-02-24T00:45:47;100660.63;;;7.58;68.26
74542;BME280;63015;45.378;20.360;2023-02-24T00:47:50;100665.81;;;7.58;68.12
74542;BME280;63015;45.378;20.360;2023-02-24T00:49:52;100660.53;;;7.52;68.45
74542;BME280;63015;45.378;20.360;2023-02-24T00:51:52;100657.84;;;7.46;68.75
74542;BME280;63015;45.378;20.360;2023-02-24T00:53:55;100656.09;;;7.45;68.70
74542;BME280;63015;45.378;20.360;2023-02-24T00:56:00;100659.50;;;7.43;68.97
74542;BME280;63015;45.378;20.360;2023-02-24T00:58:04;100659.53;;;7.44;68.81
74542;BME280;63015;45.378;20.360;2023-02-24T01:00:07;100644.81;;;7.43;68.92
74542;BME280;63015;45.378;20.360;2023-02-24T01:02:13;100649.06;;;7.38;69.63
74542;BME280;63015;45.378;20.360;2023-02-24T01:04:15;100653.41;;;7.39;69.70
74542;BME280;63015;45.378;20.360;2023-02-24T01:06:19;100650.78;;;7.36;70.14
74542;BME280;63015;45.378;20.360;2023-02-24T01:08:19;100649.03;;;7.35;70.26
74542;BME280;63015;45.378;20.360;2023-02-24T01:10:22;100646.31;;;7.29;70.91
74542;BME280;63015;45.378;20.360;2023-02-24T01:12:28;100639.34;;;7.24;70.71
74542;BME280;63015;45.378;20.360;2023-02-24T01:14:49;100641.03;;;7.22;71.36
74542;BME280;63015;45.378;20.360;2023-02-24T01:16:50;100637.56;;;7.20;71.19
74542;BME280;63015;45.378;20.360;2023-02-24T01:18:50;100647.88;;;7.17;71.51
74542;BME280;63015;45.378;20.360;2023-02-24T01:20:51;100638.38;;;7.18;71.40
74542;BME280;63015;45.378;20.360;2023-02-24T01:22:53;100636.66;;;7.18;71.75
74542;BME280;63015;45.378;20.360;2023-02-24T01:24:53;100633.13;;;7.15;71.75
74542;BME280;63015;45.378;20.360;2023-02-24T01:26:54;100630.63;;;7.18;71.53
74542;BME280;63015;45.378;20.360;2023-02-24T01:28:56;100624.53;;;7.17;71.75
74542;BME280;63015;45.378;20.360;2023-02-24T01:31:01;100627.06;;;7.11;72.25
74542;BME280;63015;45.378;20.360;2023-02-24T01:33:02;100623.56;;;7.11;72.18
74542;BME280;63015;45.378;20.360;2023-02-24T01:35:03;100624.41;;;7.08;72.49
74542;BME280;63015;45.378;20.360;2023-02-24T01:37:03;100620.94;;;7.06;72.63
74542;BME280;63015;45.378;20.360;2023-02-24T01:39:04;100619.72;;;6.85;73.53
74542;BME280;63015;45.378;20.360;2023-02-24T01:41:07;100619.78;;;6.90;73.42
74542;BME280;63015;45.378;20.360;2023-02-24T01:43:08;100622.22;;;6.81;73.79
74542;BME280;63015;45.378;20.360;2023-02-24T01:45:16;100627.44;;;6.84;73.53
74542;BME280;63015;45.378;20.360;2023-02-24T01:47:18;100622.94;;;6.73;74.72
74542;BME280;63015;45.378;20.360;2023-02-24T01:49:51;100628.06;;;6.69;74.85
74542;BME280;63015;45.378;20.360;2023-02-24T01:52:12;100622.84;;;6.67;74.68
74542;BME280;63015;45.378;20.360;2023-02-24T01:54:16;100619.19;;;6.57;75.46
74542;BME280;63015;45.378;20.360;2023-02-24T01:56:18;100621.06;;;6.65;74.80
74542;BME280;63015;45.378;20.360;2023-02-24T01:58:24;100620.97;;;6.60;75.30
74542;BME280;63015;45.378;20.360;2023-02-24T02:00:28;100624.44;;;6.61;75.08
74542;BME280;63015;45.378;20.360;2023-02-24T02:02:42;100626.13;;;6.57;75.38
74542;BME280;63015;45.378;20.360;2023-02-24T02:04:50;100620.84;;;6.54;75.69
74542;BME280;63015;45.378;20.360;2023-02-24T02:06:54;100626.03;;;6.54;75.55
74542;BME280;63015;45.378;20.360;2023-02-24T02:08:56;100614.69;;;6.47;75.94
74542;BME280;63015;45.378;20.360;2023-02-24T02:11:02;100625.91;;;6.48;76.04
74542;BME280;63015;45.378;20.360;2023-02-24T02:13:07;100625.84;;;6.43;76.33
74542;BME280;63015;45.378;20.360;2023-02-24T02:15:08;100618.88;;;6.39;76.77
74542;BME280;63015;45.378;20.360;2023-02-24T02:24:34;100616.19;;;6.34;77.57
74542;BME280;63015;45.378;20.360;2023-02-24T02:34:17;100608.22;;;6.23;78.04
74542;BME280;63015;45.378;20.360;2023-02-24T02:36:25;100608.25;;;6.25;77.85
74542;BME280;63015;45.378;20.360;2023-02-24T02:43:41;100598.69;;;6.22;78.12
74542;BME280;63015;45.378;20.360;2023-02-24T02:46:03;100605.66;;;6.25;77.82
74542;BME280;63015;45.378;20.360;2023-02-24T02:48:31;100590.94;;;6.22;77.81
74542;BME280;63015;45.378;20.360;2023-02-24T02:52:42;100598.59;;;6.18;77.91
74542;BME280;63015;45.378;20.360;2023-02-24T02:54:55;100592.47;;;6.14;78.26
74542;BME280;63015;45.378;20.360;2023-02-24T02:57:05;100587.16;;;6.06;78.39
74542;BME280;63015;45.378;20.360;2023-02-24T02:59:10;100589.84;;;6.11;78.13
74542;BME280;63015;45.378;20.360;2023-02-24T03:01:16;100595.88;;;6.12;78.16
74542;BME280;63015;45.378;20.360;2023-02-24T03:03:20;100596.75;;;6.11;78.27
74542;BME280;63015;45.378;20.360;2023-02-24T03:05:26;100588.06;;;6.08;78.33
74542;BME280;63015;45.378;20.360;2023-02-24T03:07:32;100587.97;;;6.04;78.68
74542;BME280;63015;45.378;20.360;2023-02-24T03:09:40;100582.84;;;6.05;78.62
74542;BME280;63015;45.378;20.360;2023-02-24T03:11:46;100591.66;;;6.17;78.03
74542;BME280;63015;45.378;20.360;2023-02-24T03:13:55;100589.84;;;6.11;78.40
74542;BME280;63015;45.378;20.360;2023-02-24T03:16:00;100581.16;;;6.07;78.57
74542;BME280;63015;45.378;20.360;2023-02-24T03:18:05;100588.88;;;6.06;78.40
74542;BME280;63015;45.378;20.360;2023-02-24T03:20:22;100588.75;;;6.00;78.76
74542;BME280;63015;45.378;20.360;2023-02-24T03:22:32;100585.50;;;6.10;78.30
74542;BME280;63015;45.378;20.360;2023-02-24T03:24:35;100595.69;;;6.02;78.63
74542;BME280;63015;45.378;20.360;2023-02-24T03:26:42;100586.28;;;6.04;78.67
74542;BME280;63015;45.378;20.360;2023-02-24T03:28:53;100581.75;;;5.97;78.95
74542;BME280;63015;45.378;20.360;2023-02-24T03:31:04;100574.91;;;5.98;78.88
74542;BME280;63015;45.378;20.360;2023-02-24T03:37:17;100570.44;;;5.90;78.78
74542;BME280;63015;45.378;20.360;2023-02-24T03:39:25;100576.47;;;5.91;79.07
74542;BME280;63015;45.378;20.360;2023-02-24T03:41:48;100562.66;;;5.90;78.71
74542;BME280;63015;45.378;20.360;2023-02-24T03:43:53;100567.94;;;5.95;78.68
74542;BME280;63015;45.378;20.360;2023-02-24T03:45:55;100564.44;;;5.93;78.66
74542;BME280;63015;45.378;20.360;2023-02-24T03:47:57;100575.59;;;5.90;78.81
74542;BME280;63015;45.378;20.360;2023-02-24T03:49:59;100564.34;;;5.88;78.81
74542;BME280;63015;45.378;20.360;2023-02-24T03:52:39;100566.00;;;5.85;78.70
74542;BME280;63015;45.378;20.360;2023-02-24T03:54:58;100566.91;;;5.87;78.69
74542;BME280;63015;45.378;20.360;2023-02-24T03:57:20;100567.81;;;5.89;78.79
74542;BME280;63015;45.378;20.360;2023-02-24T03:59:37;100559.88;;;5.80;78.85
74542;BME280;63015;45.378;20.360;2023-02-24T04:01:53;100557.31;;;5.81;79.01
74542;BME280;63015;45.378;20.360;2023-02-24T04:04:05;100560.78;;;5.83;78.94
74542;BME280;63015;45.378;20.360;2023-02-24T04:06:21;100569.50;;;5.87;78.60
74542;BME280;63015;45.378;20.360;2023-02-24T04:08:36;100565.09;;;5.83;78.63
74542;BME280;63015;45.378;20.360;2023-02-24T04:10:47;100569.44;;;5.84;78.63
74542;BME280;63015;45.378;20.360;2023-02-24T04:13:02;100572.66;;;5.72;78.89
74542;BME280;63015;45.378;20.360;2023-02-24T04:17:27;100568.31;;;5.71;79.10
74542;BME280;63015;45.378;20.360;2023-02-24T04:19:33;100569.94;;;5.67;79.26
74542;BME280;63015;45.378;20.360;2023-02-24T04:21:39;100572.69;;;5.75;78.66
74542;BME280;63015;45.378;20.360;2023-02-24T04:23:45;100566.53;;;5.68;78.62
74542;BME280;63015;45.378;20.360;2023-02-24T04:25:50;100566.53;;;5.68;78.52
74542;BME280;63015;45.378;20.360;2023-02-24T04:27:53;100561.34;;;5.68;78.64
74542;BME280;63015;45.378;20.360;2023-02-24T04:29:57;100563.09;;;5.69;78.38
74542;BME280;63015;45.378;20.360;2023-02-24T04:32:04;100565.63;;;5.68;78.26
74542;BME280;63015;45.378;20.360;2023-02-24T04:34:06;100562.84;;;5.58;78.89
74542;BME280;63015;45.378;20.360;2023-02-24T04:36:12;100560.25;;;5.57;78.99
74542;BME280;63015;45.378;20.360;2023-02-24T04:38:13;100547.44;;;5.62;78.49
74542;BME280;63015;45.378;20.360;2023-02-24T04:40:16;100552.66;;;5.65;78.49
74542;BME280;63015;45.378;20.360;2023-02-24T04:42:18;100539.63;;;5.60;78.60
74542;BME280;63015;45.378;20.360;2023-02-24T04:44:20;100542.28;;;5.63;78.43
74542;BME280;63015;45.378;20.360;2023-02-24T04:46:21;100543.97;;;5.61;78.36
74542;BME280;63015;45.378;20.360;2023-02-24T04:48:22;100545.66;;;5.59;78.59
74542;BME280;63015;45.378;20.360;2023-02-24T04:50:24;100536.16;;;5.58;78.36
74542;BME280;63015;45.378;20.360;2023-02-24T04:52:25;100532.63;;;5.54;78.87
74542;BME280;63015;45.378;20.360;2023-02-24T04:54:26;100533.59;;;5.59;78.58
74542;BME280;63015;45.378;20.360;2023-02-24T04:56:28;100534.38;;;5.55;78.61
74542;BME280;63015;45.378;20.360;2023-02-24T04:58:29;100529.34;;;5.62;78.30
74542;BME280;63015;45.378;20.360;2023-02-24T05:00:30;100532.59;;;5.53;79.13
74542;BME280;63015;45.378;20.360;2023-02-24T05:02:34;100529.34;;;5.62;78.46
74542;BME280;63015;45.378;20.360;2023-02-24T05:04:35;100529.34;;;5.62;78.32
74542;BME280;63015;45.378;20.360;2023-02-24T05:06:39;100525.16;;;5.68;78.21
74542;BME280;63015;45.378;20.360;2023-02-24T05:08:43;100530.31;;;5.67;78.35
74542;BME280;63015;45.378;20.360;2023-02-24T05:10:45;100529.50;;;5.69;78.48
74542;BME280;63015;45.378;20.360;2023-02-24T05:12:46;100524.25;;;5.68;78.21
74542;BME280;63015;45.378;20.360;2023-02-24T05:14:46;100520.78;;;5.66;78.30
74542;BME280;63015;45.378;20.360;2023-02-24T05:16:48;100521.75;;;5.71;78.11
74542;BME280;63015;45.378;20.360;2023-02-24T05:18:49;100511.44;;;5.72;78.18
74542;BME280;63015;45.378;20.360;2023-02-24T05:20:52;100512.28;;;5.71;78.04
74542;BME280;63015;45.378;20.360;2023-02-24T05:23:12;100513.09;;;5.69;78.00
74542;BME280;63015;45.378;20.360;2023-02-24T05:25:12;100510.50;;;5.69;77.98
74542;BME280;63015;45.378;20.360;2023-02-24T05:27:13;100507.03;;;5.67;77.85
74542;BME280;63015;45.378;20.360;2023-02-24T05:29:16;100503.63;;;5.69;77.79
74542;BME280;63015;45.378;20.360;2023-02-24T05:31:28;100507.94;;;5.70;77.66
74542;BME280;63015;45.378;20.360;2023-02-24T05:33:30;100514.94;;;5.74;77.55
74542;BME280;63015;45.378;20.360;2023-02-24T05:35:30;100506.38;;;5.77;77.28
74542;BME280;63015;45.378;20.360;2023-02-24T05:37:36;100501.88;;;5.68;77.67
74542;BME280;63015;45.378;20.360;2023-02-24T05:39:37;100503.56;;;5.68;77.68
74542;BME280;63015;45.378;20.360;2023-02-24T05:41:39;100489.91;;;5.72;77.24
74542;BME280;63015;45.378;20.360;2023-02-24T05:43:45;100491.53;;;5.67;77.77
74542;BME280;63015;45.378;20.360;2023-02-24T05:45:54;100500.91;;;5.63;77.85
74542;BME280;63015;45.378;20.360;2023-02-24T05:47:56;100494.84;;;5.63;77.58
74542;BME280;63015;45.378;20.360;2023-02-24T05:49:57;100504.38;;;5.65;77.70
74542;BME280;63015;45.378;20.360;2023-02-24T05:52:00;100497.44;;;5.63;77.74
74542;BME280;63015;45.378;20.360;2023-02-24T05:54:02;100494.13;;;5.68;77.32
74542;BME280;63015;45.378;20.360;2023-02-24T05:56:03;100493.22;;;5.66;77.38
74542;BME280;63015;45.378;20.360;2023-02-24T05:58:05;100490.75;;;5.72;77.28
74542;BME280;63015;45.378;20.360;2023-02-24T06:00:07;100484.75;;;5.73;76.98
74542;BME280;63015;45.378;20.360;2023-02-24T06:02:18;100495.13;;;5.76;77.08
74542;BME280;63015;45.378;20.360;2023-02-24T06:04:26;100492.59;;;5.78;76.80
74542;BME280;63015;45.378;20.360;2023-02-24T06:06:53;100502.75;;;5.69;77.05
74542;BME280;63015;45.378;20.360;2023-02-24T06:08:53;100499.22;;;5.65;77.30
74542;BME280;63015;45.378;20.360;2023-02-24T06:10:55;100508.72;;;5.66;77.50
74542;BME280;63015;45.378;20.360;2023-02-24T06:12:56;100505.50;;;5.76;76.91
74542;BME280;63015;45.378;20.360;2023-02-24T06:14:57;100499.47;;;5.78;77.07
74542;BME280;63015;45.378;20.360;2023-02-24T06:16:57;100514.13;;;5.77;77.15
74542;BME280;63015;45.378;20.360;2023-02-24T06:19:02;100515.00;;;5.78;76.98
74542;BME280;63015;45.378;20.360;2023-02-24T06:21:04;100513.47;;;5.87;76.75
74542;BME280;63015;45.378;20.360;2023-02-24T06:23:04;100516.91;;;5.86;76.79
74542;BME280;63015;45.378;20.360;2023-02-24T06:25:05;100515.97;;;5.84;77.05
74542;BME280;63015;45.378;20.360;2023-02-24T06:27:06;100523.88;;;5.90;76.87
74542;BME280;63015;45.378;20.360;2023-02-24T06:29:14;100502.47;;;5.98;76.45
74542;BME280;63015;45.378;20.360;2023-02-24T06:31:14;100512.03;;;6.00;76.74
74542;BME280;63015;45.378;20.360;2023-02-24T06:33:15;100517.16;;;5.99;76.60
74542;BME280;63015;45.378;20.360;2023-02-24T06:35:16;100513.75;;;6.01;76.60
74542;BME280;63015;45.378;20.360;2023-02-24T06:37:17;100507.06;;;6.11;76.46
74542;BME280;63015;45.378;20.360;2023-02-24T06:39:18;100514.78;;;6.09;76.66
74542;BME280;63015;45.378;20.360;2023-02-24T06:41:19;100512.19;;;6.08;76.45
74542;BME280;63015;45.378;20.360;2023-02-24T06:43:19;100515.59;;;6.07;76.68
74542;BME280;63015;45.378;20.360;2023-02-24T06:45:20;100523.50;;;6.13;76.66
74542;BME280;63015;45.378;20.360;2023-02-24T06:47:21;100521.63;;;6.06;76.79
74542;BME280;63015;45.378;20.360;2023-02-24T06:49:23;100507.88;;;6.08;76.53
74542;BME280;63015;45.378;20.360;2023-02-24T06:51:24;100506.22;;;6.14;76.41
74542;BME280;63015;45.378;20.360;2023-02-24T06:53:30;100498.50;;;6.17;76.58
74542;BME280;63015;45.378;20.360;2023-02-24T06:55:34;100478.75;;;6.22;76.65
74542;BME280;63015;45.378;20.360;2023-02-24T06:57:35;100484.00;;;6.23;76.59
74542;BME280;63015;45.378;20.360;2023-02-24T06:59:35;100482.44;;;6.35;76.31
74542;BME280;63015;45.378;20.360;2023-02-24T07:01:37;100492.88;;;6.39;76.38
74542;BME280;63015;45.378;20.360;2023-02-24T07:03:45;100493.94;;;6.49;75.96
74542;BME280;63015;45.378;20.360;2023-02-24T07:06:08;100491.25;;;6.46;75.88
74542;BME280;63015;45.378;20.360;2023-02-24T07:08:25;100491.28;;;6.48;75.68
74542;BME280;63015;45.378;20.360;2023-02-24T07:10:29;100492.34;;;6.59;75.70
74542;BME280;63015;45.378;20.360;2023-02-24T07:12:29;100488.13;;;6.66;75.74
74542;BME280;63015;45.378;20.360;2023-02-24T07:14:30;100492.59;;;6.74;75.49
74542;BME280;63015;45.378;20.360;2023-02-24T07:16:31;100487.50;;;6.81;75.25
74542;BME280;63015;45.378;20.360;2023-02-24T07:18:34;100479.84;;;6.87;75.09
74542;BME280;63015;45.378;20.360;2023-02-24T07:20:41;100491.16;;;6.92;74.76
74542;BME280;63015;45.378;20.360;2023-02-24T07:22:46;100492.00;;;6.91;75.04
74542;BME280;63015;45.378;20.360;2023-02-24T07:24:47;100490.38;;;6.99;74.98
74542;BME280;63015;45.378;20.360;2023-02-24T07:26:47;100486.06;;;7.00;74.38
74542;BME280;63015;45.378;20.360;2023-02-24T07:28:52;100482.59;;;6.99;74.59
74542;BME280;63015;45.378;20.360;2023-02-24T07:30:54;100496.44;;;6.98;74.83
74542;BME280;63015;45.378;20.360;2023-02-24T07:32:56;100484.31;;;6.97;74.77
74542;BME280;63015;45.378;20.360;2023-02-24T07:34:56;100474.81;;;6.99;74.96
74542;BME280;63015;45.378;20.360;2023-02-24T07:36:59;100480.06;;;7.02;75.08
74542;BME280;63015;45.378;20.360;2023-02-24T07:39:02;100473.13;;;7.01;75.01
74542;BME280;63015;45.378;20.360;2023-02-24T07:41:04;100466.38;;;7.11;74.85
74542;BME280;63015;45.378;20.360;2023-02-24T07:43:09;100468.97;;;7.11;74.96
74542;BME280;63015;45.378;20.360;2023-02-24T07:45:10;100476.69;;;7.10;75.10
74542;BME280;63015;45.378;20.360;2023-02-24T07:47:10;100476.75;;;7.13;75.09
74542;BME280;63015;45.378;20.360;2023-02-24T07:49:12;100477.53;;;7.07;75.32
74542;BME280;63015;45.378;20.360;2023-02-24T07:51:16;100483.75;;;7.18;75.11
74542;BME280;63015;45.378;20.360;2023-02-24T07:53:18;100477.72;;;7.19;75.32
74542;BME280;63015;45.378;20.360;2023-02-24T07:55:19;100476.84;;;7.19;75.10
74542;BME280;63015;45.378;20.360;2023-02-24T07:57:19;100472.59;;;7.24;75.01
74542;BME280;63015;45.378;20.360;2023-02-24T07:59:20;100478.72;;;7.31;74.87
74542;BME280;63015;45.378;20.360;2023-02-24T08:01:21;100480.50;;;7.35;74.89
74542;BME280;63015;45.378;20.360;2023-02-24T08:03:27;100487.59;;;7.48;74.63
74542;BME280;63015;45.378;20.360;2023-02-24T08:05:29;100484.22;;;7.54;74.69
74542;BME280;63015;45.378;20.360;2023-02-24T08:07:29;100480.72;;;7.52;74.58
74542;BME280;63015;45.378;20.360;2023-02-24T08:09:32;100477.28;;;7.51;74.68
74542;BME280;63015;45.378;20.360;2023-02-24T08:11:51;100471.06;;;7.40;75.03
74542;BME280;63015;45.378;20.360;2023-02-24T08:13:52;100475.34;;;7.38;75.27
74542;BME280;63015;45.378;20.360;2023-02-24T08:15:53;100464.88;;;7.30;76.08
74542;BME280;63015;45.378;20.360;2023-02-24T08:17:57;100457.91;;;7.24;76.03
74542;BME280;63015;45.378;20.360;2023-02-24T08:20:00;100451.00;;;7.25;75.80
74542;BME280;63015;45.378;20.360;2023-02-24T08:22:13;100440.59;;;7.23;75.93
74542;BME280;63015;45.378;20.360;2023-02-24T08:24:23;100439.78;;;7.26;75.69
74542;BME280;63015;45.378;20.360;2023-02-24T08:26:25;100441.53;;;7.27;76.23
74542;BME280;63015;45.378;20.360;2023-02-24T08:28:29;100436.41;;;7.32;76.16
74542;BME280;63015;45.378;20.360;2023-02-24T08:30:33;100438.19;;;7.36;76.41
74542;BME280;63015;45.378;20.360;2023-02-24T08:32:40;100432.09;;;7.34;76.53
74542;BME280;63015;45.378;20.360;2023-02-24T08:34:44;100431.34;;;7.44;76.56
74542;BME280;63015;45.378;20.360;2023-02-24T08:36:50;100422.88;;;7.57;76.26
74542;BME280;63015;45.378;20.360;2023-02-24T08:38:55;100426.41;;;7.63;77.02
74542;BME280;63015;45.378;20.360;2023-02-24T08:40:58;100430.78;;;7.71;76.63
74542;BME280;63015;45.378;20.360;2023-02-24T08:43:05;100417.06;;;7.80;76.19
74542;BME280;63015;45.378;20.360;2023-02-24T08:45:32;100421.47;;;7.86;76.30
74542;BME280;63015;45.378;20.360;2023-02-24T08:47:37;100427.56;;;7.93;76.11
74542;BME280;63015;45.378;20.360;2023-02-24T08:49:38;100426.69;;;7.90;76.21
74542;BME280;63015;45.378;20.360;2023-02-24T08:51:39;100429.41;;;8.01;76.08
74542;BME280;63015;45.378;20.360;2023-02-24T08:53:43;100427.81;;;8.19;76.10
74542;BME280;63015;45.378;20.360;2023-02-24T08:55:46;100428.09;;;8.48;75.54
74542;BME280;63015;45.378;20.360;2023-02-24T08:57:50;100419.69;;;8.86;75.66
74542;BME280;63015;45.378;20.360;2023-02-24T08:59:55;100429.41;;;9.23;74.39
74542;BME280;63015;45.378;20.360;2023-02-24T09:01:59;100417.38;;;9.50;73.40
74542;BME280;63015;45.378;20.360;2023-02-24T09:04:23;100420.91;;;9.61;72.52
74542;BME280;63015;45.378;20.360;2023-02-24T09:06:37;100421.78;;;9.79;71.91
74542;BME280;63015;45.378;20.360;2023-02-24T09:08:39;100419.22;;;9.91;71.58
74542;BME280;63015;45.378;20.360;2023-02-24T09:10:40;100412.28;;;9.87;70.83
74542;BME280;63015;45.378;20.360;2023-02-24T09:12:46;100412.28;;;9.87;71.47
74542;BME280;63015;45.378;20.360;2023-02-24T09:14:53;100413.19;;;10.00;71.33
74542;BME280;63015;45.378;20.360;2023-02-24T09:16:57;100400.19;;;10.22;71.04
74542;BME280;63015;45.378;20.360;2023-02-24T09:19:01;100405.41;;;10.39;70.61
74542;BME280;63015;45.378;20.360;2023-02-24T09:21:20;100402.81;;;10.39;69.99
74542;BME280;63015;45.378;20.360;2023-02-24T09:23:59;100394.13;;;10.47;70.30
74542;BME280;63015;45.378;20.360;2023-02-24T09:26:02;100391.53;;;10.47;69.82
74542;BME280;63015;45.378;20.360;2023-02-24T09:28:18;100390.59;;;10.62;69.52
74542;BME280;63015;45.378;20.360;2023-02-24T09:30:28;100387.13;;;10.77;68.62
74542;BME280;63015;45.378;20.360;2023-02-24T09:32:37;100387.97;;;10.76;68.27
74542;BME280;63015;45.378;20.360;2023-02-24T09:34:39;100386.19;;;10.91;68.74
74542;BME280;63015;45.378;20.360;2023-02-24T09:36:43;100393.09;;;11.09;68.40
74542;BME280;63015;45.378;20.360;2023-02-24T09:39:00;100387.91;;;11.10;67.81
74542;BME280;63015;45.378;20.360;2023-02-24T09:41:01;100383.47;;;11.22;67.93
74542;BME280;63015;45.378;20.360;2023-02-24T09:43:11;100384.31;;;11.38;68.04
74542;BME280;63015;45.378;20.360;2023-02-24T09:45:21;100382.44;;;11.58;67.21
74542;BME280;63015;45.378;20.360;2023-02-24T09:47:45;100371.84;;;11.88;67.03
74542;BME280;63015;45.378;20.360;2023-02-24T09:49:59;100359.56;;;12.02;66.16
74542;BME280;63015;45.378;20.360;2023-02-24T09:52:03;100362.09;;;12.11;65.35
74542;BME280;63015;45.378;20.360;2023-02-24T09:54:14;100356.06;;;12.05;65.29
74542;BME280;63015;45.378;20.360;2023-02-24T09:56:31;100355.16;;;12.09;64.94
74542;BME280;63015;45.378;20.360;2023-02-24T09:58:43;100354.25;;;12.13;65.10
74542;BME280;63015;45.378;20.360;2023-02-24T10:00:57;100347.03;;;12.40;64.01
74542;BME280;63015;45.378;20.360;2023-02-24T10:05:30;100337.31;;;12.54;64.11
74542;BME280;63015;45.378;20.360;2023-02-24T10:07:39;100337.06;;;12.77;64.02
74542;BME280;63015;45.378;20.360;2023-02-24T10:11:57;100329.72;;;13.09;62.57
74542;BME280;63015;45.378;20.360;2023-02-24T10:14:05;100327.03;;;13.13;62.60
74542;BME280;63015;45.378;20.360;2023-02-24T10:16:13;100322.41;;;13.36;62.39
74542;BME280;63015;45.378;20.360;2023-02-24T10:18:27;100314.25;;;13.57;61.81
74542;BME280;63015;45.378;20.360;2023-02-24T10:20:45;100309.69;;;13.72;61.21
74542;BME280;63015;45.378;20.360;2023-02-24T10:22:51;100303.78;;;13.59;61.10
74542;BME280;63015;45.378;20.360;2023-02-24T10:25:10;100306.31;;;13.62;61.54
74542;BME280;63015;45.378;20.360;2023-02-24T10:31:46;100291.72;;;14.02;60.94
74542;BME280;63015;45.378;20.360;2023-02-24T10:33:47;100290.53;;;14.20;60.23
74542;BME280;63015;45.378;20.360;2023-02-24T10:35:48;100284.41;;;14.21;59.77
74542;BME280;63015;45.378;20.360;2023-02-24T10:37:49;100279.03;;;14.27;60.04
74542;BME280;63015;45.378;20.360;2023-02-24T10:39:49;100274.88;;;14.15;59.81
74542;BME280;63015;45.378;20.360;2023-02-24T10:42:00;100275.66;;;14.20;59.92
74542;BME280;63015;45.378;20.360;2023-02-24T10:44:22;100276.13;;;14.42;60.30
74542;BME280;63015;45.378;20.360;2023-02-24T10:46:29;100267.50;;;14.83;60.18
74542;BME280;63015;45.378;20.360;2023-02-24T10:48:33;100268.09;;;14.95;59.38
74542;BME280;63015;45.378;20.360;2023-02-24T10:50:42;100255.91;;;14.93;59.12
74542;BME280;63015;45.378;20.360;2023-02-24T10:52:43;100252.00;;;14.70;58.90
74542;BME280;63015;45.378;20.360;2023-02-24T10:55:24;100236.34;;;14.66;59.33
74542;BME280;63015;45.378;20.360;2023-02-24T10:57:43;100240.31;;;14.87;59.33
74542;BME280;63015;45.378;20.360;2023-02-24T10:59:58;100232.78;;;15.10;58.62
74542;BME280;63015;45.378;20.360;2023-02-24T11:02:21;100226.38;;;15.22;58.26
74542;BME280;63015;45.378;20.360;2023-02-24T11:04:45;100223.38;;;15.38;58.06
74542;BME280;63015;45.378;20.360;2023-02-24T11:07:10;100218.13;;;15.39;57.92
74542;BME280;63015;45.378;20.360;2023-02-24T11:09:20;100211.13;;;15.38;58.22
74542;BME280;63015;45.378;20.360;2023-02-24T11:11:21;100208.56;;;15.35;58.46
74542;BME280;63015;45.378;20.360;2023-02-24T11:13:29;100190.66;;;15.53;58.64
74542;BME280;63015;45.378;20.360;2023-02-24T11:15:50;100189.38;;;15.69;57.94
74542;BME280;63015;45.378;20.360;2023-02-24T11:18:20;100189.94;;;15.82;55.61
74542;BME280;63015;45.378;20.360;2023-02-24T11:20:40;100173.66;;;16.01;56.14
74542;BME280;63015;45.378;20.360;2023-02-24T11:22:43;100171.19;;;16.27;55.85
74542;BME280;63015;45.378;20.360;2023-02-24T11:24:46;100170.22;;;16.30;55.81
74542;BME280;63015;45.378;20.360;2023-02-24T11:26:47;100167.94;;;16.49;56.11
74542;BME280;63015;45.378;20.360;2023-02-24T11:28:57;100157.66;;;16.70;55.52
74542;BME280;63015;45.378;20.360;2023-02-24T11:34:03;100153.16;;;16.45;55.43
74542;BME280;63015;45.378;20.360;2023-02-24T11:36:12;100140.06;;;16.42;56.01
74542;BME280;63015;45.378;20.360;2023-02-24T11:40:36;100138.47;;;16.66;55.52